createdAt,value
2022-10-01T00:00:32.017Z,18.93
2022-10-01T00:03:35.037Z,18.53
2022-10-01T00:06:36.619Z,18.40
2022-10-01T00:09:38.655Z,20.50
2022-10-01T00:12:46.528Z,18.00
2022-10-01T00:15:48.214Z,21.10
2022-10-01T00:18:50.608Z,15.73
2022-10-01T00:21:52.259Z,20.80
2022-10-01T00:24:53.853Z,18.90
2022-10-01T00:27:55.551Z,18.83
2022-10-01T00:30:57.299Z,18.83
2022-10-01T00:34:00.560Z,17.90
2022-10-01T00:37:02.137Z,21.43
2022-10-01T00:40:07.997Z,17.53
2022-10-01T00:43:24.566Z,21.97
2022-10-01T00:46:38.926Z,16.30
2022-10-01T00:49:42.340Z,18.60
2022-10-01T00:52:48.691Z,19.13
2022-10-01T00:55:56.788Z,16.83
2022-10-01T00:58:58.921Z,21.97
2022-10-01T01:02:03.472Z,22.20
2022-10-01T01:05:06.557Z,24.60
2022-10-01T01:08:11.847Z,18.40
2022-10-01T01:11:26.894Z,22.03
2022-10-01T01:14:40.425Z,22.40
2022-10-01T01:17:47.725Z,20.80
2022-10-01T01:21:10.723Z,16.83
2022-10-01T01:24:18.088Z,19.33
2022-10-01T01:27:43.458Z,23.13
2022-10-01T01:30:46.697Z,20.70
2022-10-01T01:33:52.233Z,18.27
2022-10-01T01:37:00.975Z,20.83
2022-10-01T01:40:05.044Z,18.03
2022-10-01T01:43:13.920Z,16.87
2022-10-01T01:46:17.593Z,17.73
2022-10-01T01:49:20.889Z,17.30
2022-10-01T01:52:22.520Z,15.23
2022-10-01T01:55:25.070Z,17.40
2022-10-01T01:58:28.143Z,17.57
2022-10-01T02:01:38.860Z,16.40
2022-10-01T02:04:45.858Z,12.97
2022-10-01T02:08:18.460Z,17.37
2022-10-01T02:11:32.999Z,15.37
2022-10-01T02:15:04.081Z,14.73
2022-10-01T02:18:27.579Z,11.07
2022-10-01T02:21:44.901Z,13.80
2022-10-01T02:24:57.252Z,17.37
2022-10-01T02:28:03.473Z,13.60
2022-10-01T02:31:05.241Z,13.97
2022-10-01T02:34:12.348Z,11.27
2022-10-01T02:37:16.385Z,15.57
2022-10-01T02:40:22.489Z,15.03
2022-10-01T02:43:34.287Z,11.23
2022-10-01T02:46:48.294Z,15.97
2022-10-01T02:49:50.996Z,10.10
2022-10-01T02:53:09.817Z,12.40
2022-10-01T02:56:14.731Z,13.70
2022-10-01T02:59:16.381Z,12.47
2022-10-01T03:02:19.222Z,11.07
2022-10-01T03:05:21.419Z,11.20
2022-10-01T03:08:23.311Z,12.23
2022-10-01T03:11:24.919Z,9.77
2022-10-01T03:14:26.588Z,13.00
2022-10-01T03:17:28.677Z,10.13
2022-10-01T03:20:30.365Z,12.00
2022-10-01T03:23:32.076Z,20.10
2022-10-01T03:26:33.761Z,10.93
2022-10-01T03:29:35.449Z,10.10
2022-10-01T03:32:37.515Z,11.47
2022-10-01T03:35:39.076Z,12.43
2022-10-01T03:38:40.954Z,11.30
2022-10-01T03:41:42.740Z,10.87
2022-10-01T03:44:44.362Z,11.87
2022-10-01T03:47:52.217Z,8.37
2022-10-01T03:50:58.610Z,8.50
2022-10-01T03:54:00.223Z,7.80
2022-10-01T03:57:01.866Z,9.20
2022-10-01T04:00:04.706Z,9.20
2022-10-01T04:03:06.752Z,9.80
2022-10-01T04:06:08.529Z,8.60
2022-10-01T04:09:10.232Z,7.47
2022-10-01T04:12:12.243Z,8.67
2022-10-01T04:15:13.893Z,10.33
2022-10-01T04:18:17.310Z,8.23
2022-10-01T04:21:18.955Z,9.13
2022-10-01T04:24:20.538Z,9.17
2022-10-01T04:27:22.133Z,9.10
2022-10-01T04:30:25.153Z,8.37
2022-10-01T04:33:26.802Z,8.40
2022-10-01T04:36:28.520Z,9.10
2022-10-01T04:39:30.300Z,9.03
2022-10-01T04:42:34.819Z,8.03
2022-10-01T04:45:37.459Z,12.33
2022-10-01T04:48:39.059Z,9.50
2022-10-01T04:51:40.698Z,9.10
2022-10-01T04:54:44.292Z,8.43
2022-10-01T04:57:49.378Z,13.43
2022-10-01T05:00:51.148Z,9.50
2022-10-01T05:03:52.836Z,9.27
2022-10-01T05:06:54.503Z,10.73
2022-10-01T05:09:56.308Z,9.10
2022-10-01T05:12:58.389Z,9.60
2022-10-01T05:16:01.037Z,9.03
2022-10-01T05:19:02.667Z,10.80
2022-10-01T05:22:04.297Z,8.80
2022-10-01T05:25:07.000Z,9.70
2022-10-01T05:28:08.696Z,8.97
2022-10-01T05:31:12.312Z,7.60
2022-10-01T05:34:14.276Z,10.17
2022-10-01T05:37:16.004Z,10.07
2022-10-01T05:40:18.497Z,10.80
2022-10-01T05:43:20.116Z,8.93
2022-10-01T05:46:24.815Z,10.13
2022-10-01T05:49:26.430Z,8.70
2022-10-01T05:52:28.039Z,10.40
2022-10-01T05:55:34.370Z,12.93
2022-10-01T05:58:36.554Z,10.00
2022-10-01T06:01:38.244Z,8.37
2022-10-01T06:04:41.291Z,13.80
2022-10-01T06:07:43.057Z,8.70
2022-10-01T06:10:44.670Z,10.90
2022-10-01T06:13:46.727Z,9.93
2022-10-01T06:16:48.358Z,13.60
2022-10-01T06:19:51.435Z,9.23
2022-10-01T06:22:55.284Z,7.13
2022-10-01T06:26:00.241Z,8.27
2022-10-01T06:29:03.456Z,11.50
2022-10-01T06:32:05.439Z,8.07
2022-10-01T06:35:07.639Z,8.70
2022-10-01T06:38:10.105Z,9.40
2022-10-01T06:41:14.056Z,7.30
2022-10-01T06:44:15.801Z,11.40
2022-10-01T06:47:17.491Z,8.10
2022-10-01T06:50:19.057Z,6.90
2022-10-01T06:53:20.664Z,10.80
2022-10-01T06:56:22.289Z,7.80
2022-10-01T06:59:23.908Z,10.53
2022-10-01T07:02:30.404Z,9.30
2022-10-01T07:05:32.245Z,7.00
2022-10-01T07:08:33.959Z,7.23
2022-10-01T07:11:41.122Z,8.43
2022-10-01T07:14:42.828Z,9.37
2022-10-01T07:17:46.908Z,8.10
2022-10-01T07:20:48.459Z,6.60
2022-10-01T07:23:50.200Z,7.97
2022-10-01T07:26:55.403Z,9.47
2022-10-01T07:29:58.878Z,7.93
2022-10-01T07:33:00.504Z,8.47
2022-10-01T07:36:04.031Z,11.53
2022-10-01T07:39:06.172Z,7.67
2022-10-01T07:42:07.798Z,7.20
2022-10-01T07:45:10.244Z,8.10
2022-10-01T07:48:11.851Z,6.80
2022-10-01T07:51:13.419Z,8.10
2022-10-01T07:54:15.621Z,9.47
2022-10-01T07:57:17.479Z,6.60
2022-10-01T08:00:19.964Z,8.47
2022-10-01T08:03:21.598Z,6.40
2022-10-01T08:06:25.558Z,7.67
2022-10-01T08:09:27.442Z,6.73
2022-10-01T08:12:30.387Z,7.27
2022-10-01T08:15:32.033Z,7.60
2022-10-01T08:18:34.248Z,6.20
2022-10-01T08:21:36.465Z,7.20
2022-10-01T08:24:39.687Z,8.63
2022-10-01T08:27:41.322Z,7.43
2022-10-01T08:30:43.096Z,6.10
2022-10-01T08:33:45.403Z,7.47
2022-10-01T08:36:51.654Z,6.43
2022-10-01T08:39:54.550Z,5.57
2022-10-01T08:42:59.422Z,8.63
2022-10-01T08:46:11.224Z,7.63
2022-10-01T08:49:20.981Z,6.47
2022-10-01T08:52:25.942Z,7.23
2022-10-01T08:55:36.043Z,6.47
2022-10-01T08:58:46.478Z,6.97
2022-10-01T09:01:49.068Z,5.10
2022-10-01T09:05:01.023Z,6.37
2022-10-01T09:08:43.469Z,5.60
2022-10-01T09:12:18.514Z,5.00
2022-10-01T09:15:37.883Z,6.50
2022-10-01T09:18:48.415Z,4.90
2022-10-01T09:21:57.297Z,5.63
2022-10-01T09:25:13.819Z,8.30
2022-10-01T09:28:21.533Z,8.53
2022-10-01T09:31:45.171Z,5.93
2022-10-01T09:34:47.469Z,4.60
2022-10-01T09:37:59.542Z,5.43
2022-10-01T09:41:01.969Z,4.63
2022-10-01T09:44:03.810Z,4.83
2022-10-01T09:47:18.199Z,4.07
2022-10-01T09:50:32.698Z,4.23
2022-10-01T09:53:41.271Z,3.97
2022-10-01T09:56:50.848Z,4.90
2022-10-01T10:00:11.886Z,3.90
2022-10-01T10:03:24.302Z,4.33
2022-10-01T10:06:29.053Z,4.00
2022-10-01T10:09:33.366Z,4.40
2022-10-01T10:12:35.773Z,4.97
2022-10-01T10:16:05.599Z,3.60
2022-10-01T10:19:17.884Z,4.27
2022-10-01T10:22:24.777Z,5.03
2022-10-01T10:25:26.478Z,3.50
2022-10-01T10:28:29.783Z,3.67
2022-10-01T10:31:51.063Z,3.60
2022-10-01T10:35:02.706Z,4.07
2022-10-01T10:38:04.895Z,3.40
2022-10-01T10:41:17.376Z,3.67
2022-10-01T10:44:22.466Z,3.27
2022-10-01T10:47:24.330Z,3.30
2022-10-01T10:50:31.973Z,3.40
2022-10-01T10:53:45.841Z,4.77
2022-10-01T10:57:00.005Z,3.13
2022-10-01T11:00:23.884Z,2.80
2022-10-01T11:03:28.944Z,2.90
2022-10-01T11:06:31.178Z,3.40
2022-10-01T11:09:43.324Z,3.40
2022-10-01T11:12:48.029Z,3.83
2022-10-01T11:16:08.696Z,3.10
2022-10-01T11:19:28.933Z,4.00
2022-10-01T11:23:01.483Z,3.37
2022-10-01T11:26:25.559Z,3.27
2022-10-01T11:30:02.165Z,3.47
2022-10-01T11:33:21.875Z,2.83
2022-10-01T11:36:38.482Z,3.50
2022-10-01T11:39:43.219Z,3.30
2022-10-01T11:42:46.457Z,3.13
2022-10-01T11:45:53.988Z,3.43
2022-10-01T11:49:19.469Z,4.33
2022-10-01T11:52:41.995Z,4.10
2022-10-01T11:56:48.270Z,3.67
2022-10-01T11:59:54.956Z,5.90
2022-10-01T12:03:00.873Z,2.40
2022-10-01T12:06:09.250Z,2.50
2022-10-01T12:09:20.293Z,2.90
2022-10-01T12:12:34.379Z,5.17
2022-10-01T12:15:47.679Z,2.90
2022-10-01T12:18:58.866Z,2.97
2022-10-01T12:22:06.867Z,3.20
2022-10-01T12:25:14.975Z,4.87
2022-10-01T12:28:25.870Z,5.10
2022-10-01T12:31:37.949Z,2.53
2022-10-01T12:35:05.912Z,2.60
2022-10-01T12:38:26.309Z,1.50
2022-10-01T12:41:32.605Z,2.40
2022-10-01T12:44:59.995Z,1.63
2022-10-01T12:48:44.670Z,1.20
2022-10-01T12:52:02.281Z,5.70
2022-10-01T12:55:40.027Z,2.10
2022-10-01T12:58:51.172Z,4.20
2022-10-01T13:02:34.304Z,2.10
2022-10-01T13:05:59.341Z,1.87
2022-10-01T13:09:23.073Z,2.00
2022-10-01T13:12:53.017Z,1.90
2022-10-01T13:16:08.050Z,2.13
2022-10-01T13:19:19.808Z,1.90
2022-10-01T13:22:37.108Z,2.60
2022-10-01T13:26:09.788Z,1.73
2022-10-01T13:29:14.352Z,1.20
2022-10-01T13:32:28.007Z,1.30
2022-10-01T13:35:36.636Z,2.73
2022-10-01T13:38:38.317Z,1.43
2022-10-01T13:41:40.154Z,2.73
2022-10-01T13:44:41.890Z,1.30
2022-10-01T13:47:43.692Z,2.20
2022-10-01T13:50:58.995Z,2.03
2022-10-01T13:54:02.083Z,3.13
2022-10-01T13:57:11.400Z,2.07
2022-10-01T14:00:13.056Z,2.50
2022-10-01T14:03:37.806Z,2.00
2022-10-01T14:06:53.421Z,1.63
2022-10-01T14:09:58.381Z,4.83
2022-10-01T14:13:22.375Z,1.43
2022-10-01T14:16:24.350Z,1.00
2022-10-01T14:19:28.122Z,1.70
2022-10-01T14:22:32.757Z,2.30
2022-10-01T14:26:07.250Z,2.50
2022-10-01T14:29:39.206Z,1.37
2022-10-01T14:33:20.773Z,0.80
2022-10-01T14:36:35.572Z,1.33
2022-10-01T14:39:37.503Z,1.50
2022-10-01T14:42:39.185Z,0.90
2022-10-01T14:45:51.052Z,1.00
2022-10-01T14:49:01.822Z,1.90
2022-10-01T14:52:17.687Z,5.23
2022-10-01T14:55:24.341Z,1.20
2022-10-01T14:58:53.019Z,2.63
2022-10-01T15:01:59.235Z,3.03
2022-10-01T15:05:00.865Z,1.03
2022-10-01T15:08:18.633Z,2.13
2022-10-01T15:11:29.561Z,2.03
2022-10-01T15:14:32.148Z,2.53
2022-10-01T15:17:35.733Z,3.57
2022-10-01T15:20:38.298Z,2.03
2022-10-01T15:23:41.426Z,1.87
2022-10-01T15:26:45.940Z,1.90
2022-10-01T15:29:56.015Z,4.50
2022-10-01T15:32:58.386Z,2.60
2022-10-01T15:36:02.687Z,1.70
2022-10-01T15:39:23.235Z,3.10
2022-10-01T15:42:26.320Z,4.23
2022-10-01T15:45:27.929Z,2.70
2022-10-01T15:48:30.375Z,1.87
2022-10-01T15:51:31.998Z,2.90
2022-10-01T15:54:34.434Z,5.17
2022-10-01T15:57:38.381Z,3.00
2022-10-01T16:00:56.641Z,1.73
2022-10-01T16:04:11.012Z,4.13
2022-10-01T16:07:28.113Z,3.50
2022-10-01T16:10:42.386Z,1.60
2022-10-01T16:13:46.658Z,4.53
2022-10-01T16:16:50.534Z,4.50
2022-10-01T16:19:55.348Z,3.50
2022-10-01T16:23:35.744Z,2.43
2022-10-01T16:26:38.851Z,3.50
2022-10-01T16:29:40.663Z,4.93
2022-10-01T16:32:42.241Z,4.00
2022-10-01T16:35:47.570Z,3.17
2022-10-01T16:38:49.392Z,2.30
2022-10-01T16:42:12.097Z,4.30
2022-10-01T16:45:19.661Z,7.27
2022-10-01T16:48:25.021Z,2.33
2022-10-01T16:51:27.053Z,2.03
2022-10-01T16:54:28.925Z,3.30
2022-10-01T16:57:31.627Z,3.53
2022-10-01T17:00:33.799Z,5.77
2022-10-01T17:03:36.299Z,1.50
2022-10-01T17:06:37.873Z,2.40
2022-10-01T17:09:50.973Z,3.63
2022-10-01T17:12:53.798Z,2.60
2022-10-01T17:15:55.582Z,1.90
2022-10-01T17:18:57.200Z,6.33
2022-10-01T17:21:58.768Z,3.23
2022-10-01T17:25:00.318Z,2.87
2022-10-01T17:28:04.665Z,1.80
2022-10-01T17:31:07.611Z,5.20
2022-10-01T17:34:09.401Z,7.13
2022-10-01T17:37:11.684Z,9.53
2022-10-01T17:40:13.607Z,9.20
2022-10-01T17:43:16.873Z,3.30
2022-10-01T17:46:18.672Z,2.23
2022-10-01T17:49:20.346Z,4.63
2022-10-01T17:52:21.956Z,2.30
2022-10-01T17:55:23.769Z,3.80
2022-10-01T17:58:26.640Z,4.43
2022-10-01T18:01:28.327Z,2.87
2022-10-01T18:04:30.049Z,3.83
2022-10-01T18:07:31.756Z,8.47
2022-10-01T18:10:33.344Z,5.20
2022-10-01T18:13:36.342Z,4.27
2022-10-01T18:16:38.778Z,3.17
2022-10-01T18:19:56.312Z,7.53
2022-10-01T18:22:57.965Z,2.90
2022-10-01T18:25:59.837Z,3.80
2022-10-01T18:29:01.699Z,6.80
2022-10-01T18:32:24.579Z,5.07
2022-10-01T18:35:32.044Z,3.10
2022-10-01T18:38:37.332Z,3.43
2022-10-01T18:41:40.195Z,6.70
2022-10-01T18:44:41.988Z,3.60
2022-10-01T18:48:28.344Z,4.90
2022-10-01T18:52:05.546Z,4.50
2022-10-01T18:55:20.284Z,3.77
2022-10-01T18:58:41.459Z,4.83
2022-10-01T19:02:06.161Z,6.07
2022-10-01T19:05:33.859Z,3.57
2022-10-01T19:08:41.466Z,8.07
2022-10-01T19:12:11.124Z,4.03
2022-10-01T19:15:23.305Z,5.10
2022-10-01T19:18:38.976Z,4.00
2022-10-01T19:22:10.861Z,9.93
2022-10-01T19:25:35.981Z,3.90
2022-10-01T19:29:23.032Z,4.20
2022-10-01T19:32:30.071Z,3.50
2022-10-01T19:35:40.751Z,4.23
2022-10-01T19:38:47.130Z,4.17
2022-10-01T19:41:58.474Z,3.33
2022-10-01T19:45:14.418Z,5.07
2022-10-01T19:48:27.634Z,4.40
2022-10-01T19:51:36.993Z,8.33
2022-10-01T19:55:00.203Z,4.10
2022-10-01T19:58:02.689Z,4.50
2022-10-01T20:01:04.764Z,6.00
2022-10-01T20:04:17.606Z,2.80
2022-10-01T20:07:21.929Z,4.50
2022-10-01T20:10:43.801Z,3.23
2022-10-01T20:14:38.296Z,3.00
2022-10-01T20:18:28.375Z,6.33
2022-10-01T20:21:43.889Z,4.70
2022-10-01T20:25:11.629Z,4.83
2022-10-01T20:28:32.483Z,6.83
2022-10-01T20:31:43.823Z,9.60
2022-10-01T20:35:11.709Z,5.60
2022-10-01T20:38:20.718Z,6.57
2022-10-01T20:41:24.662Z,8.03
2022-10-01T20:44:31.674Z,5.73
2022-10-01T20:47:44.276Z,8.13
2022-10-01T20:51:01.327Z,6.10
2022-10-01T20:54:19.173Z,7.60
2022-10-01T20:57:38.833Z,6.97
2022-10-01T21:00:44.126Z,8.67
2022-10-01T21:03:51.988Z,7.57
2022-10-01T21:07:01.120Z,6.50
2022-10-01T21:10:18.818Z,7.70
2022-10-01T21:13:30.702Z,6.33
2022-10-01T21:17:00.627Z,6.00
2022-10-01T21:20:08.477Z,7.83
2022-10-01T21:23:51.996Z,5.23
2022-10-01T21:27:13.236Z,9.43
2022-10-01T21:30:18.267Z,9.87
2022-10-01T21:33:58.597Z,6.33
2022-10-01T21:37:15.121Z,9.50
2022-10-01T21:40:25.320Z,7.80
2022-10-01T21:44:00.842Z,11.97
2022-10-01T21:47:13.722Z,10.20
2022-10-01T21:50:42.619Z,13.50
2022-10-01T21:54:03.049Z,9.63
2022-10-01T21:57:20.598Z,11.47
2022-10-01T22:00:29.417Z,12.23
2022-10-01T22:03:58.410Z,10.57
2022-10-01T22:07:21.911Z,12.00
2022-10-01T22:10:34.073Z,13.00
2022-10-01T22:13:41.302Z,14.97
2022-10-01T22:16:57.872Z,18.57
2022-10-01T22:20:04.100Z,13.97
2022-10-01T22:23:11.426Z,9.23
2022-10-01T22:26:19.577Z,11.30
2022-10-01T22:29:28.532Z,12.73
2022-10-01T22:32:38.766Z,12.23
2022-10-01T22:36:07.822Z,15.47
2022-10-01T22:39:19.303Z,9.27
2022-10-01T22:42:30.246Z,15.60
2022-10-01T22:45:52.912Z,11.53
2022-10-01T22:49:03.597Z,13.20
2022-10-01T22:52:28.053Z,14.07
2022-10-01T22:55:53.756Z,14.67
2022-10-01T22:59:42.085Z,13.20
2022-10-01T23:03:02.480Z,11.07
2022-10-01T23:06:15.430Z,22.50
2022-10-01T23:09:41.406Z,14.57
2022-10-01T23:13:05.127Z,12.37
2022-10-01T23:16:28.271Z,14.30
2022-10-01T23:19:30.036Z,15.00
2022-10-01T23:22:51.393Z,15.50
2022-10-01T23:26:09.977Z,13.00
2022-10-01T23:29:21.432Z,16.50
2022-10-01T23:32:29.029Z,12.37
2022-10-01T23:35:47.811Z,11.30
2022-10-01T23:39:21.304Z,17.97
2022-10-01T23:42:35.011Z,14.70
2022-10-01T23:45:58.165Z,21.30
2022-10-01T23:49:06.182Z,15.47
2022-10-01T23:52:15.265Z,14.00
2022-10-01T23:55:48.665Z,16.50
2022-10-01T23:58:58.201Z,25.93
